sensor_id;sensor_type;location;lat;lon;timestamp;P1;durP1;ratioP1;P2;durP2;ratioP2
26271;SDS011;13997;48.902;12.472;2022-12-24T00:01:11;6.18;;;1.80;;
26271;SDS011;13997;48.902;12.472;2022-12-24T00:03:37;4.80;;;1.50;;
26271;SDS011;13997;48.902;12.472;2022-12-24T00:06:05;4.40;;;1.48;;
26271;SDS011;13997;48.902;12.472;2022-12-24T00:08:32;6.32;;;1.95;;
26271;SDS011;13997;48.902;12.472;2022-12-24T00:10:58;6.35;;;1.50;;
26271;SDS011;13997;48.902;12.472;2022-12-24T00:13:24;4.43;;;1.38;;
26271;SDS011;13997;48.902;12.472;2022-12-24T00:15:49;4.70;;;1.35;;
26271;SDS011;13997;48.902;12.472;2022-12-24T00:18:15;6.10;;;1.70;;
26271;SDS011;13997;48.902;12.472;2022-12-24T00:20:41;6.00;;;1.52;;
26271;SDS011;13997;48.902;12.472;2022-12-24T00:23:11;3.88;;;1.40;;
26271;SDS011;13997;48.902;12.472;2022-12-24T00:25:36;7.47;;;1.67;;
26271;SDS011;13997;48.902;12.472;2022-12-24T00:28:02;8.75;;;1.92;;
26271;SDS011;13997;48.902;12.472;2022-12-24T00:30:30;7.18;;;2.00;;
26271;SDS011;13997;48.902;12.472;2022-12-24T00:32:55;5.45;;;2.33;;
26271;SDS011;13997;48.902;12.472;2022-12-24T00:35:21;4.32;;;1.85;;
26271;SDS011;13997;48.902;12.472;2022-12-24T00:37:47;5.43;;;1.83;;
26271;SDS011;13997;48.902;12.472;2022-12-24T00:40:14;3.40;;;1.35;;
26271;SDS011;13997;48.902;12.472;2022-12-24T00:42:40;3.72;;;1.45;;
26271;SDS011;13997;48.902;12.472;2022-12-24T00:45:06;4.65;;;1.42;;
26271;SDS011;13997;48.902;12.472;2022-12-24T00:47:32;4.13;;;1.10;;
26271;SDS011;13997;48.902;12.472;2022-12-24T00:49:57;2.75;;;1.33;;
26271;SDS011;13997;48.902;12.472;2022-12-24T00:52:23;4.90;;;1.13;;
26271;SDS011;13997;48.902;12.472;2022-12-24T00:54:49;6.55;;;1.30;;
26271;SDS011;13997;48.902;12.472;2022-12-24T00:57:14;3.60;;;1.15;;
26271;SDS011;13997;48.902;12.472;2022-12-24T00:59:40;5.63;;;1.05;;
26271;SDS011;13997;48.902;12.472;2022-12-24T01:02:05;5.32;;;1.00;;
26271;SDS011;13997;48.902;12.472;2022-12-24T01:04:31;2.90;;;0.90;;
26271;SDS011;13997;48.902;12.472;2022-12-24T01:07:15;3.72;;;1.02;;
26271;SDS011;13997;48.902;12.472;2022-12-24T01:09:41;3.28;;;0.95;;
26271;SDS011;13997;48.902;12.472;2022-12-24T01:12:06;4.88;;;1.20;;
26271;SDS011;13997;48.902;12.472;2022-12-24T01:14:32;4.10;;;1.10;;
26271;SDS011;13997;48.902;12.472;2022-12-24T01:16:57;6.88;;;1.30;;
26271;SDS011;13997;48.902;12.472;2022-12-24T01:19:23;3.42;;;1.33;;
26271;SDS011;13997;48.902;12.472;2022-12-24T01:21:49;4.82;;;1.50;;
26271;SDS011;13997;48.902;12.472;2022-12-24T01:24:14;5.55;;;1.83;;
26271;SDS011;13997;48.902;12.472;2022-12-24T01:26:41;9.57;;;2.03;;
26271;SDS011;13997;48.902;12.472;2022-12-24T01:29:07;7.47;;;1.65;;
26271;SDS011;13997;48.902;12.472;2022-12-24T01:31:33;3.70;;;1.63;;
26271;SDS011;13997;48.902;12.472;2022-12-24T01:33:58;8.75;;;2.15;;
26271;SDS011;13997;48.902;12.472;2022-12-24T01:36:24;10.13;;;2.50;;
26271;SDS011;13997;48.902;12.472;2022-12-24T01:38:50;6.07;;;2.47;;
26271;SDS011;13997;48.902;12.472;2022-12-24T01:41:16;11.45;;;2.92;;
26271;SDS011;13997;48.902;12.472;2022-12-24T01:47:02;11.38;;;3.00;;
26271;SDS011;13997;48.902;12.472;2022-12-24T01:49:33;4.38;;;1.25;;
26271;SDS011;13997;48.902;12.472;2022-12-24T01:52:02;6.40;;;1.30;;
26271;SDS011;13997;48.902;12.472;2022-12-24T01:54:38;8.05;;;1.48;;
26271;SDS011;13997;48.902;12.472;2022-12-24T01:57:12;7.70;;;1.48;;
26271;SDS011;13997;48.902;12.472;2022-12-24T01:59:43;15.02;;;2.05;;
26271;SDS011;13997;48.902;12.472;2022-12-24T02:02:11;8.90;;;1.65;;
26271;SDS011;13997;48.902;12.472;2022-12-24T02:04:51;7.18;;;1.60;;
26271;SDS011;13997;48.902;12.472;2022-12-24T02:07:28;14.32;;;1.65;;
26271;SDS011;13997;48.902;12.472;2022-12-24T02:09:55;5.43;;;1.20;;
26271;SDS011;13997;48.902;12.472;2022-12-24T02:12:23;10.75;;;1.83;;
26271;SDS011;13997;48.902;12.472;2022-12-24T02:14:50;10.85;;;1.42;;
26271;SDS011;13997;48.902;12.472;2022-12-24T02:20:29;5.60;;;1.50;;
26271;SDS011;13997;48.902;12.472;2022-12-24T02:34:06;5.03;;;1.10;;
26271;SDS011;13997;48.902;12.472;2022-12-24T02:36:39;5.43;;;1.10;;
26271;SDS011;13997;48.902;12.472;2022-12-24T02:39:11;4.55;;;1.10;;
26271;SDS011;13997;48.902;12.472;2022-12-24T02:41:44;5.43;;;1.30;;
26271;SDS011;13997;48.902;12.472;2022-12-24T02:44:31;7.93;;;1.58;;
26271;SDS011;13997;48.902;12.472;2022-12-24T02:47:03;11.93;;;1.50;;
26271;SDS011;13997;48.902;12.472;2022-12-24T02:49:30;6.20;;;1.15;;
26271;SDS011;13997;48.902;12.472;2022-12-24T02:51:56;4.55;;;1.05;;
26271;SDS011;13997;48.902;12.472;2022-12-24T02:54:21;5.30;;;1.23;;
26271;SDS011;13997;48.902;12.472;2022-12-24T03:10:03;4.35;;;1.25;;
26271;SDS011;13997;48.902;12.472;2022-12-24T03:12:41;5.20;;;1.10;;
26271;SDS011;13997;48.902;12.472;2022-12-24T03:15:11;7.15;;;1.40;;
26271;SDS011;13997;48.902;12.472;2022-12-24T03:17:39;7.18;;;1.23;;
26271;SDS011;13997;48.902;12.472;2022-12-24T03:20:08;3.72;;;1.13;;
26271;SDS011;13997;48.902;12.472;2022-12-24T03:22:36;5.68;;;1.10;;
26271;SDS011;13997;48.902;12.472;2022-12-24T03:25:03;5.88;;;1.30;;
26271;SDS011;13997;48.902;12.472;2022-12-24T03:27:29;5.63;;;1.13;;
26271;SDS011;13997;48.902;12.472;2022-12-24T03:29:56;5.18;;;1.33;;
26271;SDS011;13997;48.902;12.472;2022-12-24T03:32:26;7.53;;;1.42;;
26271;SDS011;13997;48.902;12.472;2022-12-24T03:34:53;4.57;;;1.38;;
26271;SDS011;13997;48.902;12.472;2022-12-24T03:37:19;8.93;;;1.50;;
26271;SDS011;13997;48.902;12.472;2022-12-24T03:39:45;4.68;;;1.10;;
26271;SDS011;13997;48.902;12.472;2022-12-24T03:42:10;3.28;;;1.10;;
26271;SDS011;13997;48.902;12.472;2022-12-24T03:44:36;3.92;;;1.52;;
26271;SDS011;13997;48.902;12.472;2022-12-24T03:47:02;4.60;;;1.30;;
26271;SDS011;13997;48.902;12.472;2022-12-24T03:49:27;4.45;;;1.10;;
26271;SDS011;13997;48.902;12.472;2022-12-24T03:51:53;6.05;;;1.23;;
26271;SDS011;13997;48.902;12.472;2022-12-24T03:54:19;3.22;;;1.05;;
26271;SDS011;13997;48.902;12.472;2022-12-24T03:56:44;5.85;;;1.60;;
26271;SDS011;13997;48.902;12.472;2022-12-24T03:59:10;8.15;;;1.50;;
26271;SDS011;13997;48.902;12.472;2022-12-24T04:01:35;5.30;;;1.40;;
26271;SDS011;13997;48.902;12.472;2022-12-24T04:04:01;6.57;;;1.35;;
26271;SDS011;13997;48.902;12.472;2022-12-24T04:06:26;1.90;;;1.00;;
26271;SDS011;13997;48.902;12.472;2022-12-24T04:08:52;7.68;;;1.15;;
26271;SDS011;13997;48.902;12.472;2022-12-24T04:11:18;5.75;;;1.42;;
26271;SDS011;13997;48.902;12.472;2022-12-24T04:13:43;5.10;;;1.17;;
26271;SDS011;13997;48.902;12.472;2022-12-24T04:16:13;6.38;;;1.50;;
26271;SDS011;13997;48.902;12.472;2022-12-24T04:18:40;5.93;;;1.40;;
26271;SDS011;13997;48.902;12.472;2022-12-24T04:21:07;5.50;;;1.23;;
26271;SDS011;13997;48.902;12.472;2022-12-24T04:23:33;7.13;;;1.50;;
26271;SDS011;13997;48.902;12.472;2022-12-24T04:26:00;4.63;;;1.10;;
26271;SDS011;13997;48.902;12.472;2022-12-24T04:28:30;5.32;;;1.42;;
26271;SDS011;13997;48.902;12.472;2022-12-24T04:31:00;6.32;;;1.40;;
26271;SDS011;13997;48.902;12.472;2022-12-24T04:33:27;4.57;;;1.05;;
26271;SDS011;13997;48.902;12.472;2022-12-24T04:35:53;4.05;;;1.13;;
26271;SDS011;13997;48.902;12.472;2022-12-24T04:38:21;6.32;;;1.40;;
26271;SDS011;13997;48.902;12.472;2022-12-24T04:40:46;5.85;;;1.30;;
26271;SDS011;13997;48.902;12.472;2022-12-24T04:43:12;3.53;;;1.10;;
26271;SDS011;13997;48.902;12.472;2022-12-24T04:45:39;6.90;;;1.35;;
26271;SDS011;13997;48.902;12.472;2022-12-24T04:48:05;5.65;;;1.45;;
26271;SDS011;13997;48.902;12.472;2022-12-24T04:50:30;6.82;;;1.20;;
26271;SDS011;13997;48.902;12.472;2022-12-24T04:52:56;5.68;;;1.50;;
26271;SDS011;13997;48.902;12.472;2022-12-24T04:55:22;11.88;;;1.75;;
26271;SDS011;13997;48.902;12.472;2022-12-24T04:57:48;7.45;;;1.70;;
26271;SDS011;13997;48.902;12.472;2022-12-24T05:00:14;8.57;;;1.55;;
26271;SDS011;13997;48.902;12.472;2022-12-24T05:02:39;5.75;;;1.65;;
26271;SDS011;13997;48.902;12.472;2022-12-24T05:05:05;7.35;;;1.75;;
26271;SDS011;13997;48.902;12.472;2022-12-24T05:07:32;6.03;;;1.60;;
26271;SDS011;13997;48.902;12.472;2022-12-24T05:09:58;9.18;;;1.50;;
26271;SDS011;13997;48.902;12.472;2022-12-24T05:12:23;3.25;;;1.20;;
26271;SDS011;13997;48.902;12.472;2022-12-24T05:14:49;7.20;;;1.73;;
26271;SDS011;13997;48.902;12.472;2022-12-24T05:17:15;6.00;;;1.63;;
26271;SDS011;13997;48.902;12.472;2022-12-24T05:19:40;8.57;;;1.95;;
26271;SDS011;13997;48.902;12.472;2022-12-24T05:22:06;12.68;;;2.42;;
26271;SDS011;13997;48.902;12.472;2022-12-24T05:24:50;10.45;;;2.05;;
26271;SDS011;13997;48.902;12.472;2022-12-24T05:27:34;14.27;;;2.60;;
26271;SDS011;13997;48.902;12.472;2022-12-24T05:30:00;6.30;;;2.08;;
26271;SDS011;13997;48.902;12.472;2022-12-24T05:32:26;12.55;;;2.30;;
26271;SDS011;13997;48.902;12.472;2022-12-24T05:34:52;14.27;;;2.47;;
26271;SDS011;13997;48.902;12.472;2022-12-24T05:37:18;12.75;;;2.90;;
26271;SDS011;13997;48.902;12.472;2022-12-24T05:39:43;10.70;;;3.03;;
26271;SDS011;13997;48.902;12.472;2022-12-24T05:42:09;9.45;;;2.40;;
26271;SDS011;13997;48.902;12.472;2022-12-24T05:44:34;12.23;;;2.72;;
26271;SDS011;13997;48.902;12.472;2022-12-24T05:47:01;11.38;;;2.67;;
26271;SDS011;13997;48.902;12.472;2022-12-24T05:49:26;15.55;;;2.40;;
26271;SDS011;13997;48.902;12.472;2022-12-24T05:51:53;13.38;;;2.10;;
26271;SDS011;13997;48.902;12.472;2022-12-24T05:54:18;14.80;;;2.40;;
26271;SDS011;13997;48.902;12.472;2022-12-24T05:56:44;10.75;;;2.80;;
26271;SDS011;13997;48.902;12.472;2022-12-24T05:59:09;16.98;;;3.83;;
26271;SDS011;13997;48.902;12.472;2022-12-24T06:01:35;15.00;;;4.65;;
26271;SDS011;13997;48.902;12.472;2022-12-24T06:04:00;20.73;;;5.15;;
26271;SDS011;13997;48.902;12.472;2022-12-24T06:06:27;12.38;;;3.55;;
26271;SDS011;13997;48.902;12.472;2022-12-24T06:08:53;15.88;;;4.13;;
26271;SDS011;13997;48.902;12.472;2022-12-24T06:11:21;12.13;;;4.32;;
26271;SDS011;13997;48.902;12.472;2022-12-24T06:13:48;24.75;;;5.70;;
26271;SDS011;13997;48.902;12.472;2022-12-24T06:16:15;25.48;;;7.50;;
26271;SDS011;13997;48.902;12.472;2022-12-24T06:18:42;33.65;;;8.75;;
26271;SDS011;13997;48.902;12.472;2022-12-24T06:21:08;30.58;;;7.95;;
26271;SDS011;13997;48.902;12.472;2022-12-24T06:23:35;27.52;;;7.10;;
26271;SDS011;13997;48.902;12.472;2022-12-24T06:26:03;25.77;;;7.05;;
26271;SDS011;13997;48.902;12.472;2022-12-24T06:28:30;29.45;;;7.05;;
26271;SDS011;13997;48.902;12.472;2022-12-24T06:30:58;19.40;;;4.90;;
26271;SDS011;13997;48.902;12.472;2022-12-24T06:33:25;38.72;;;7.70;;
26271;SDS011;13997;48.902;12.472;2022-12-24T06:35:51;48.45;;;13.15;;
26271;SDS011;13997;48.902;12.472;2022-12-24T06:38:16;35.47;;;8.98;;
26271;SDS011;13997;48.902;12.472;2022-12-24T06:40:43;28.33;;;6.82;;
26271;SDS011;13997;48.902;12.472;2022-12-24T06:43:10;27.08;;;7.47;;
26271;SDS011;13997;48.902;12.472;2022-12-24T06:45:36;38.53;;;12.88;;
26271;SDS011;13997;48.902;12.472;2022-12-24T06:48:02;85.80;;;23.60;;
26271;SDS011;13997;48.902;12.472;2022-12-24T06:50:28;73.22;;;20.23;;
26271;SDS011;13997;48.902;12.472;2022-12-24T06:52:53;21.65;;;5.90;;
26271;SDS011;13997;48.902;12.472;2022-12-24T06:55:19;18.38;;;4.00;;
26271;SDS011;13997;48.902;12.472;2022-12-24T06:57:45;14.32;;;3.13;;
26271;SDS011;13997;48.902;12.472;2022-12-24T07:00:11;16.60;;;2.70;;
26271;SDS011;13997;48.902;12.472;2022-12-24T07:02:40;20.77;;;4.18;;
26271;SDS011;13997;48.902;12.472;2022-12-24T07:05:06;14.05;;;2.42;;
26271;SDS011;13997;48.902;12.472;2022-12-24T07:07:35;12.82;;;2.55;;
26271;SDS011;13997;48.902;12.472;2022-12-24T07:10:02;19.63;;;3.50;;
26271;SDS011;13997;48.902;12.472;2022-12-24T07:12:29;16.70;;;2.63;;
26271;SDS011;13997;48.902;12.472;2022-12-24T07:14:55;12.45;;;2.75;;
26271;SDS011;13997;48.902;12.472;2022-12-24T07:17:21;20.88;;;2.50;;
26271;SDS011;13997;48.902;12.472;2022-12-24T07:19:46;14.05;;;2.80;;
26271;SDS011;13997;48.902;12.472;2022-12-24T07:22:12;10.93;;;2.85;;
26271;SDS011;13997;48.902;12.472;2022-12-24T07:24:37;18.08;;;3.15;;
26271;SDS011;13997;48.902;12.472;2022-12-24T07:27:03;16.05;;;3.20;;
26271;SDS011;13997;48.902;12.472;2022-12-24T07:29:29;11.50;;;2.60;;
26271;SDS011;13997;48.902;12.472;2022-12-24T07:31:54;13.65;;;3.13;;
26271;SDS011;13997;48.902;12.472;2022-12-24T07:34:20;9.63;;;3.17;;
26271;SDS011;13997;48.902;12.472;2022-12-24T07:36:45;8.20;;;2.85;;
26271;SDS011;13997;48.902;12.472;2022-12-24T07:39:11;14.93;;;3.90;;
26271;SDS011;13997;48.902;12.472;2022-12-24T07:41:37;11.50;;;3.97;;
26271;SDS011;13997;48.902;12.472;2022-12-24T07:44:03;17.02;;;3.58;;
26271;SDS011;13997;48.902;12.472;2022-12-24T07:46:28;14.23;;;4.45;;
26271;SDS011;13997;48.902;12.472;2022-12-24T07:48:54;18.02;;;6.38;;
26271;SDS011;13997;48.902;12.472;2022-12-24T07:51:20;23.30;;;8.07;;
26271;SDS011;13997;48.902;12.472;2022-12-24T07:53:45;18.15;;;7.72;;
26271;SDS011;13997;48.902;12.472;2022-12-24T07:56:14;23.30;;;7.60;;
26271;SDS011;13997;48.902;12.472;2022-12-24T07:58:40;21.00;;;6.70;;
26271;SDS011;13997;48.902;12.472;2022-12-24T08:01:06;15.98;;;3.55;;
26271;SDS011;13997;48.902;12.472;2022-12-24T08:03:32;17.02;;;3.15;;
26271;SDS011;13997;48.902;12.472;2022-12-24T08:05:58;14.85;;;3.45;;
26271;SDS011;13997;48.902;12.472;2022-12-24T08:08:24;10.30;;;3.55;;
26271;SDS011;13997;48.902;12.472;2022-12-24T08:10:49;13.90;;;4.00;;
26271;SDS011;13997;48.902;12.472;2022-12-24T08:13:16;14.70;;;4.25;;
26271;SDS011;13997;48.902;12.472;2022-12-24T08:15:42;18.02;;;5.18;;
26271;SDS011;13997;48.902;12.472;2022-12-24T08:18:09;16.13;;;3.97;;
26271;SDS011;13997;48.902;12.472;2022-12-24T08:20:39;22.70;;;6.82;;
26271;SDS011;13997;48.902;12.472;2022-12-24T08:23:05;24.70;;;8.07;;
26271;SDS011;13997;48.902;12.472;2022-12-24T08:25:32;27.10;;;8.50;;
26271;SDS011;13997;48.902;12.472;2022-12-24T08:27:58;36.40;;;11.60;;
26271;SDS011;13997;48.902;12.472;2022-12-24T08:30:23;28.58;;;10.32;;
26271;SDS011;13997;48.902;12.472;2022-12-24T08:32:49;33.20;;;9.25;;
26271;SDS011;13997;48.902;12.472;2022-12-24T08:35:15;19.80;;;5.93;;
26271;SDS011;13997;48.902;12.472;2022-12-24T08:37:40;16.40;;;4.45;;
26271;SDS011;13997;48.902;12.472;2022-12-24T08:40:06;21.98;;;3.92;;
26271;SDS011;13997;48.902;12.472;2022-12-24T08:42:32;11.32;;;3.20;;
26271;SDS011;13997;48.902;12.472;2022-12-24T08:44:58;16.15;;;3.80;;
26271;SDS011;13997;48.902;12.472;2022-12-24T08:47:24;16.55;;;4.45;;
26271;SDS011;13997;48.902;12.472;2022-12-24T08:49:49;15.82;;;4.35;;
26271;SDS011;13997;48.902;12.472;2022-12-24T08:52:15;22.27;;;4.03;;
26271;SDS011;13997;48.902;12.472;2022-12-24T08:54:41;16.48;;;3.30;;
26271;SDS011;13997;48.902;12.472;2022-12-24T08:57:07;19.30;;;3.65;;
26271;SDS011;13997;48.902;12.472;2022-12-24T08:59:32;18.70;;;4.10;;
26271;SDS011;13997;48.902;12.472;2022-12-24T09:01:58;18.63;;;3.88;;
26271;SDS011;13997;48.902;12.472;2022-12-24T09:04:23;15.50;;;3.55;;
26271;SDS011;13997;48.902;12.472;2022-12-24T09:06:49;23.42;;;3.70;;
26271;SDS011;13997;48.902;12.472;2022-12-24T09:09:14;19.58;;;3.75;;
26271;SDS011;13997;48.902;12.472;2022-12-24T09:11:41;19.52;;;4.55;;
26271;SDS011;13997;48.902;12.472;2022-12-24T09:14:09;18.92;;;4.05;;
26271;SDS011;13997;48.902;12.472;2022-12-24T09:16:35;10.50;;;3.15;;
26271;SDS011;13997;48.902;12.472;2022-12-24T09:19:01;22.30;;;3.35;;
26271;SDS011;13997;48.902;12.472;2022-12-24T09:21:27;15.38;;;3.38;;
26271;SDS011;13997;48.902;12.472;2022-12-24T09:23:52;18.30;;;2.80;;
26271;SDS011;13997;48.902;12.472;2022-12-24T09:28:45;13.40;;;3.33;;
26271;SDS011;13997;48.902;12.472;2022-12-24T09:31:11;16.27;;;3.63;;
26271;SDS011;13997;48.902;12.472;2022-12-24T09:33:38;16.80;;;3.17;;
26271;SDS011;13997;48.902;12.472;2022-12-24T09:36:05;20.70;;;3.78;;
26271;SDS011;13997;48.902;12.472;2022-12-24T09:38:32;11.88;;;2.80;;
26271;SDS011;13997;48.902;12.472;2022-12-24T09:40:58;11.82;;;3.35;;
26271;SDS011;13997;48.902;12.472;2022-12-24T09:43:26;12.60;;;3.45;;
26271;SDS011;13997;48.902;12.472;2022-12-24T09:48:53;13.43;;;3.08;;
26271;SDS011;13997;48.902;12.472;2022-12-24T09:56:44;13.95;;;2.67;;
26271;SDS011;13997;48.902;12.472;2022-12-24T09:59:22;13.23;;;3.22;;
26271;SDS011;13997;48.902;12.472;2022-12-24T10:01:52;9.68;;;2.47;;
26271;SDS011;13997;48.902;12.472;2022-12-24T10:04:27;13.40;;;2.70;;
26271;SDS011;13997;48.902;12.472;2022-12-24T10:07:04;14.38;;;2.30;;
26271;SDS011;13997;48.902;12.472;2022-12-24T10:09:38;14.25;;;2.50;;
26271;SDS011;13997;48.902;12.472;2022-12-24T10:15:13;9.52;;;2.60;;
26271;SDS011;13997;48.902;12.472;2022-12-24T10:28:33;13.88;;;2.58;;
26271;SDS011;13997;48.902;12.472;2022-12-24T10:31:08;8.27;;;2.28;;
26271;SDS011;13997;48.902;12.472;2022-12-24T10:33:36;10.88;;;2.80;;
26271;SDS011;13997;48.902;12.472;2022-12-24T10:36:07;16.23;;;3.25;;
26271;SDS011;13997;48.902;12.472;2022-12-24T10:38:35;16.60;;;2.90;;
26271;SDS011;13997;48.902;12.472;2022-12-24T10:41:01;11.13;;;3.03;;
26271;SDS011;13997;48.902;12.472;2022-12-24T10:43:27;9.18;;;2.67;;
26271;SDS011;13997;48.902;12.472;2022-12-24T10:48:28;11.57;;;2.75;;
26271;SDS011;13997;48.902;12.472;2022-12-24T10:50:59;23.98;;;3.97;;
26271;SDS011;13997;48.902;12.472;2022-12-24T10:53:37;14.90;;;3.00;;
26271;SDS011;13997;48.902;12.472;2022-12-24T10:56:07;11.65;;;2.85;;
26271;SDS011;13997;48.902;12.472;2022-12-24T10:58:35;14.23;;;3.92;;
26271;SDS011;13997;48.902;12.472;2022-12-24T11:01:01;16.35;;;3.55;;
26271;SDS011;13997;48.902;12.472;2022-12-24T11:03:34;17.10;;;3.53;;
26271;SDS011;13997;48.902;12.472;2022-12-24T11:06:01;19.90;;;4.38;;
26271;SDS011;13997;48.902;12.472;2022-12-24T11:08:39;12.10;;;3.17;;
26271;SDS011;13997;48.902;12.472;2022-12-24T11:11:17;12.18;;;2.80;;
26271;SDS011;13997;48.902;12.472;2022-12-24T11:13:45;15.45;;;4.50;;
26271;SDS011;13997;48.902;12.472;2022-12-24T11:16:29;13.38;;;2.85;;
26271;SDS011;13997;48.902;12.472;2022-12-24T11:19:00;10.07;;;2.30;;
26271;SDS011;13997;48.902;12.472;2022-12-24T11:21:34;13.43;;;2.70;;
26271;SDS011;13997;48.902;12.472;2022-12-24T11:26:36;10.82;;;2.05;;
26271;SDS011;13997;48.902;12.472;2022-12-24T11:31:38;11.07;;;2.17;;
26271;SDS011;13997;48.902;12.472;2022-12-24T11:34:16;13.38;;;2.55;;
26271;SDS011;13997;48.902;12.472;2022-12-24T11:36:44;15.23;;;2.63;;
26271;SDS011;13997;48.902;12.472;2022-12-24T11:39:20;11.32;;;1.95;;
26271;SDS011;13997;48.902;12.472;2022-12-24T11:41:49;10.60;;;2.13;;
26271;SDS011;13997;48.902;12.472;2022-12-24T11:44:26;9.35;;;2.30;;
26271;SDS011;13997;48.902;12.472;2022-12-24T11:46:53;11.45;;;2.28;;
26271;SDS011;13997;48.902;12.472;2022-12-24T11:49:26;10.73;;;2.20;;
26271;SDS011;13997;48.902;12.472;2022-12-24T11:54:34;11.80;;;2.55;;
26271;SDS011;13997;48.902;12.472;2022-12-24T11:57:09;13.65;;;2.25;;
26271;SDS011;13997;48.902;12.472;2022-12-24T11:59:37;14.35;;;2.45;;
26271;SDS011;13997;48.902;12.472;2022-12-24T12:04:42;11.05;;;2.28;;
26271;SDS011;13997;48.902;12.472;2022-12-24T12:07:12;15.10;;;2.83;;
26271;SDS011;13997;48.902;12.472;2022-12-24T12:09:49;19.38;;;2.45;;
26271;SDS011;13997;48.902;12.472;2022-12-24T12:12:23;12.10;;;2.60;;
26271;SDS011;13997;48.902;12.472;2022-12-24T12:20:11;14.27;;;2.35;;
26271;SDS011;13997;48.902;12.472;2022-12-24T12:27:58;16.88;;;2.17;;
26271;SDS011;13997;48.902;12.472;2022-12-24T12:30:27;11.63;;;2.30;;
26271;SDS011;13997;48.902;12.472;2022-12-24T12:35:49;12.48;;;3.28;;
26271;SDS011;13997;48.902;12.472;2022-12-24T12:38:20;15.48;;;3.03;;
26271;SDS011;13997;48.902;12.472;2022-12-24T12:43:25;17.67;;;3.15;;
26271;SDS011;13997;48.902;12.472;2022-12-24T12:46:26;12.07;;;2.72;;
26271;SDS011;13997;48.902;12.472;2022-12-24T12:48:55;17.35;;;3.10;;
26271;SDS011;13997;48.902;12.472;2022-12-24T12:56:47;9.98;;;3.45;;
26271;SDS011;13997;48.902;12.472;2022-12-24T13:02:11;17.17;;;4.07;;
26271;SDS011;13997;48.902;12.472;2022-12-24T13:16:01;24.48;;;5.80;;
26271;SDS011;13997;48.902;12.472;2022-12-24T13:21:19;14.07;;;4.40;;
26271;SDS011;13997;48.902;12.472;2022-12-24T13:23:47;23.38;;;6.60;;
26271;SDS011;13997;48.902;12.472;2022-12-24T13:26:13;25.02;;;6.30;;
26271;SDS011;13997;48.902;12.472;2022-12-24T13:28:40;24.20;;;5.57;;
26271;SDS011;13997;48.902;12.472;2022-12-24T13:36:11;17.80;;;5.03;;
26271;SDS011;13997;48.902;12.472;2022-12-24T13:38:45;20.17;;;6.07;;
26271;SDS011;13997;48.902;12.472;2022-12-24T13:49:32;14.93;;;3.20;;
26271;SDS011;13997;48.902;12.472;2022-12-24T13:57:30;16.48;;;2.92;;
26271;SDS011;13997;48.902;12.472;2022-12-24T14:05:19;10.18;;;3.00;;
26271;SDS011;13997;48.902;12.472;2022-12-24T14:07:57;13.77;;;2.75;;
26271;SDS011;13997;48.902;12.472;2022-12-24T14:10:25;16.35;;;3.13;;
26271;SDS011;13997;48.902;12.472;2022-12-24T14:12:54;11.38;;;3.35;;
26271;SDS011;13997;48.902;12.472;2022-12-24T14:15:43;15.48;;;2.90;;
26271;SDS011;13997;48.902;12.472;2022-12-24T14:18:24;17.80;;;3.50;;
26271;SDS011;13997;48.902;12.472;2022-12-24T14:20:51;14.68;;;3.00;;
26271;SDS011;13997;48.902;12.472;2022-12-24T14:26:11;18.30;;;3.40;;
26271;SDS011;13997;48.902;12.472;2022-12-24T14:28:40;18.00;;;2.92;;
26271;SDS011;13997;48.902;12.472;2022-12-24T14:31:12;21.33;;;4.80;;
26271;SDS011;13997;48.902;12.472;2022-12-24T14:33:40;19.73;;;4.00;;
26271;SDS011;13997;48.902;12.472;2022-12-24T14:36:07;19.92;;;3.88;;
26271;SDS011;13997;48.902;12.472;2022-12-24T14:38:34;17.88;;;4.38;;
26271;SDS011;13997;48.902;12.472;2022-12-24T14:43:52;25.13;;;5.53;;
26271;SDS011;13997;48.902;12.472;2022-12-24T14:46:42;22.13;;;5.20;;
26271;SDS011;13997;48.902;12.472;2022-12-24T14:54:48;34.83;;;7.60;;
26271;SDS011;13997;48.902;12.472;2022-12-24T14:57:18;37.53;;;9.93;;
26271;SDS011;13997;48.902;12.472;2022-12-24T14:59:58;26.30;;;7.35;;
26271;SDS011;13997;48.902;12.472;2022-12-24T15:07:39;28.85;;;7.55;;
26271;SDS011;13997;48.902;12.472;2022-12-24T15:10:22;23.85;;;7.13;;
26271;SDS011;13997;48.902;12.472;2022-12-24T15:13:03;22.17;;;6.00;;
26271;SDS011;13997;48.902;12.472;2022-12-24T15:15:31;19.83;;;5.93;;
26271;SDS011;13997;48.902;12.472;2022-12-24T15:17:58;24.92;;;6.57;;
26271;SDS011;13997;48.902;12.472;2022-12-24T15:20:26;27.48;;;10.10;;
26271;SDS011;13997;48.902;12.472;2022-12-24T15:22:54;20.90;;;7.68;;
26271;SDS011;13997;48.902;12.472;2022-12-24T15:25:28;21.92;;;7.10;;
26271;SDS011;13997;48.902;12.472;2022-12-24T15:27:57;22.63;;;7.60;;
26271;SDS011;13997;48.902;12.472;2022-12-24T15:30:24;24.17;;;7.40;;
26271;SDS011;13997;48.902;12.472;2022-12-24T15:32:54;21.38;;;7.70;;
26271;SDS011;13997;48.902;12.472;2022-12-24T15:38:06;20.77;;;7.22;;
26271;SDS011;13997;48.902;12.472;2022-12-24T15:40:36;18.90;;;6.50;;
26271;SDS011;13997;48.902;12.472;2022-12-24T15:43:02;15.80;;;5.82;;
26271;SDS011;13997;48.902;12.472;2022-12-24T15:45:30;24.88;;;7.53;;
26271;SDS011;13997;48.902;12.472;2022-12-24T15:48:08;26.10;;;8.25;;
26271;SDS011;13997;48.902;12.472;2022-12-24T15:53:07;19.60;;;4.55;;
26271;SDS011;13997;48.902;12.472;2022-12-24T15:55:41;19.70;;;3.35;;
26271;SDS011;13997;48.902;12.472;2022-12-24T15:58:51;13.55;;;3.63;;
26271;SDS011;13997;48.902;12.472;2022-12-24T16:03:33;15.05;;;3.30;;
26271;SDS011;13997;48.902;12.472;2022-12-24T16:06:06;14.35;;;5.40;;
26271;SDS011;13997;48.902;12.472;2022-12-24T16:08:36;17.58;;;5.50;;
26271;SDS011;13997;48.902;12.472;2022-12-24T16:13:29;16.48;;;5.13;;
26271;SDS011;13997;48.902;12.472;2022-12-24T16:16:01;14.85;;;4.82;;
26271;SDS011;13997;48.902;12.472;2022-12-24T16:21:17;18.05;;;6.85;;
26271;SDS011;13997;48.902;12.472;2022-12-24T16:23:45;15.93;;;6.53;;
26271;SDS011;13997;48.902;12.472;2022-12-24T16:26:13;21.15;;;7.93;;
26271;SDS011;13997;48.902;12.472;2022-12-24T16:28:38;17.90;;;8.30;;
26271;SDS011;13997;48.902;12.472;2022-12-24T16:31:04;16.88;;;6.80;;
26271;SDS011;13997;48.902;12.472;2022-12-24T16:33:30;13.95;;;5.80;;
26271;SDS011;13997;48.902;12.472;2022-12-24T16:35:55;12.05;;;4.82;;
26271;SDS011;13997;48.902;12.472;2022-12-24T16:38:21;14.95;;;4.03;;
26271;SDS011;13997;48.902;12.472;2022-12-24T16:40:47;19.08;;;6.20;;
26271;SDS011;13997;48.902;12.472;2022-12-24T16:43:12;16.48;;;6.18;;
26271;SDS011;13997;48.902;12.472;2022-12-24T16:46:01;26.45;;;7.82;;
26271;SDS011;13997;48.902;12.472;2022-12-24T16:48:29;18.45;;;6.63;;
26271;SDS011;13997;48.902;12.472;2022-12-24T16:50:55;11.70;;;5.28;;
26271;SDS011;13997;48.902;12.472;2022-12-24T16:53:21;17.15;;;4.88;;
26271;SDS011;13997;48.902;12.472;2022-12-24T16:55:47;16.15;;;4.40;;
26271;SDS011;13997;48.902;12.472;2022-12-24T16:58:15;15.98;;;4.57;;
26271;SDS011;13997;48.902;12.472;2022-12-24T17:00:42;14.38;;;4.35;;
26271;SDS011;13997;48.902;12.472;2022-12-24T17:03:08;14.18;;;4.80;;
26271;SDS011;13997;48.902;12.472;2022-12-24T17:05:38;16.45;;;6.30;;
26271;SDS011;13997;48.902;12.472;2022-12-24T17:08:05;13.25;;;5.28;;
26271;SDS011;13997;48.902;12.472;2022-12-24T17:10:31;9.43;;;4.30;;
26271;SDS011;13997;48.902;12.472;2022-12-24T17:12:57;7.57;;;3.88;;